createdAt,value
2022-09-02T00:00:15.391Z,0
2022-09-02T00:01:32.495Z,0
2022-09-02T00:02:49.599Z,0
2022-09-02T00:04:06.704Z,0
2022-09-02T00:05:23.808Z,0
2022-09-02T00:06:39.928Z,0
2022-09-02T00:07:57.032Z,0
2022-09-02T00:09:14.136Z,0
2022-09-02T00:10:31.240Z,0
2022-09-02T00:11:48.344Z,0
2022-09-02T00:13:05.449Z,0
2022-09-02T00:14:22.553Z,0
2022-09-02T00:15:39.655Z,0
2022-09-02T00:16:56.759Z,0
2022-09-02T00:18:13.863Z,0
2022-09-02T00:19:30.967Z,0
2022-09-02T00:20:48.071Z,0
2022-09-02T00:22:05.175Z,0
2022-09-02T00:23:21.296Z,0
2022-09-02T00:24:38.400Z,0
2022-09-02T00:25:55.504Z,0
2022-09-02T00:27:12.608Z,0
2022-09-02T00:28:29.712Z,0
2022-09-02T00:29:46.816Z,0
2022-09-02T00:31:03.921Z,0
2022-09-02T00:32:21.025Z,0
2022-09-02T00:33:38.129Z,0
2022-09-02T00:34:55.233Z,0
2022-09-02T00:36:12.337Z,0
2022-09-02T00:37:29.441Z,0
2022-09-02T00:38:46.546Z,0
2022-09-02T00:40:02.666Z,0
2022-09-02T00:41:19.770Z,0
2022-09-02T00:42:36.875Z,0
2022-09-02T00:43:53.979Z,0
2022-09-02T00:45:11.083Z,0
2022-09-02T00:46:28.187Z,0
2022-09-02T00:47:45.292Z,0
2022-09-02T00:49:02.396Z,0
2022-09-02T00:50:19.500Z,0
2022-09-02T00:51:36.605Z,0
2022-09-02T00:52:53.709Z,0
2022-09-02T00:54:10.813Z,0
2022-09-02T00:55:27.917Z,0
2022-09-02T00:56:44.038Z,0
2022-09-02T00:58:01.142Z,0
2022-09-02T00:59:18.248Z,0
2022-09-02T01:00:35.352Z,0
2022-09-02T01:01:52.457Z,0
2022-09-02T01:03:09.561Z,0
2022-09-02T01:04:26.665Z,0
2022-09-02T01:05:43.770Z,0
2022-09-02T01:07:00.874Z,0
2022-09-02T01:08:17.978Z,0
2022-09-02T01:09:35.082Z,0
2022-09-02T01:10:52.186Z,0
2022-09-02T01:12:09.291Z,0
2022-09-02T01:13:25.412Z,0
2022-09-02T01:14:42.516Z,0
2022-09-02T01:15:59.620Z,0
2022-09-02T01:17:16.724Z,0
2022-09-02T01:18:33.829Z,0
2022-09-02T01:19:50.933Z,0
2022-09-02T01:21:08.037Z,0
2022-09-02T01:22:25.143Z,0
2022-09-02T01:23:42.247Z,0
2022-09-02T01:24:59.352Z,0
2022-09-02T01:26:16.456Z,0
2022-09-02T01:27:33.560Z,0
2022-09-02T01:28:50.666Z,0
2022-09-02T01:30:06.786Z,0
2022-09-02T01:31:23.891Z,0
2022-09-02T01:32:40.995Z,0
2022-09-02T01:33:58.099Z,0
2022-09-02T01:35:15.204Z,0
2022-09-02T01:36:32.308Z,0
2022-09-02T01:37:49.413Z,0
2022-09-02T01:39:06.517Z,0
2022-09-02T01:40:23.621Z,0
2022-09-02T01:41:40.725Z,0
2022-09-02T01:42:57.830Z,0
2022-09-02T01:44:14.934Z,0
2022-09-02T01:45:32.039Z,0
2022-09-02T01:46:48.159Z,0
2022-09-02T01:48:05.263Z,0
2022-09-02T01:49:22.368Z,0
2022-09-02T01:50:39.472Z,0
2022-09-02T01:51:56.576Z,0
2022-09-02T01:53:13.681Z,0
2022-09-02T01:54:30.785Z,0
2022-09-02T01:55:47.889Z,0
2022-09-02T01:57:04.994Z,0
2022-09-02T01:58:22.098Z,0
2022-09-02T01:59:39.203Z,0
2022-09-02T02:00:56.307Z,0
2022-09-02T02:02:13.411Z,0
2022-09-02T02:03:29.531Z,0
2022-09-02T02:04:46.636Z,0
2022-09-02T02:06:03.740Z,0
2022-09-02T02:07:20.844Z,0
2022-09-02T02:08:37.950Z,0
2022-09-02T02:09:55.054Z,0
2022-09-02T02:11:11.175Z,0
2022-09-02T02:12:28.279Z,0
2022-09-02T02:13:45.384Z,0
2022-09-02T02:15:02.488Z,0
2022-09-02T02:16:19.592Z,0
2022-09-02T02:17:36.697Z,0
2022-09-02T02:18:53.801Z,0
2022-09-02T02:20:10.906Z,0
2022-09-02T02:21:28.010Z,0
2022-09-02T02:22:45.116Z,0
2022-09-02T02:24:02.220Z,0
2022-09-02T02:25:19.324Z,0
2022-09-02T02:26:36.429Z,0
2022-09-02T02:27:52.549Z,0
2022-09-02T02:29:09.654Z,0
2022-09-02T02:30:26.758Z,0
2022-09-02T02:31:43.862Z,0
2022-09-02T02:33:00.967Z,0
2022-09-02T02:34:18.072Z,0
2022-09-02T02:35:35.176Z,0
2022-09-02T02:36:52.281Z,0
2022-09-02T02:38:09.385Z,0
2022-09-02T02:39:26.489Z,0
2022-09-02T02:40:43.594Z,0
2022-09-02T02:42:00.698Z,0
2022-09-02T02:43:17.803Z,0
2022-09-02T02:44:33.923Z,0
2022-09-02T02:45:51.029Z,0
2022-09-02T02:47:08.133Z,0
2022-09-02T02:48:25.237Z,0
2022-09-02T02:49:42.342Z,0
2022-09-02T02:50:59.447Z,0
2022-09-02T02:52:16.551Z,0
2022-09-02T02:53:33.656Z,0
2022-09-02T02:54:50.761Z,0
2022-09-02T02:56:07.865Z,0
2022-09-02T02:57:24.967Z,0
2022-09-02T02:58:42.072Z,0
2022-09-02T02:59:59.176Z,0
2022-09-02T03:01:15.297Z,0
2022-09-02T03:02:32.401Z,0
2022-09-02T03:03:49.505Z,0
2022-09-02T03:05:06.610Z,0
2022-09-02T03:06:23.715Z,0
2022-09-02T03:07:40.819Z,0
2022-09-02T03:08:57.923Z,0
2022-09-02T03:10:15.028Z,0
2022-09-02T03:11:32.130Z,0
2022-09-02T03:12:49.234Z,0
2022-09-02T03:14:06.339Z,0
2022-09-02T03:15:23.443Z,0
2022-09-02T03:16:40.549Z,0
2022-09-02T03:17:56.669Z,0
2022-09-02T03:19:13.773Z,0
2022-09-02T03:20:30.878Z,0
2022-09-02T03:21:47.983Z,0
2022-09-02T03:23:05.087Z,0
2022-09-02T03:24:22.192Z,0
2022-09-02T03:25:39.296Z,0
2022-09-02T03:26:56.401Z,0
2022-09-02T03:28:13.505Z,0
2022-09-02T03:29:30.610Z,0
2022-09-02T03:30:47.714Z,0
2022-09-02T03:32:04.818Z,0
2022-09-02T03:33:21.923Z,0
2022-09-02T03:34:38.043Z,0
2022-09-02T03:35:55.147Z,0
2022-09-02T03:37:12.252Z,0
2022-09-02T03:38:29.357Z,0
2022-09-02T03:39:46.461Z,0
2022-09-02T03:41:03.566Z,0
2022-09-02T03:42:20.671Z,0
2022-09-02T03:43:37.775Z,0
2022-09-02T03:44:54.879Z,0
2022-09-02T03:46:11.984Z,0
2022-09-02T03:47:29.088Z,0
2022-09-02T03:48:46.193Z,0
2022-09-02T03:50:03.297Z,0
2022-09-02T03:51:19.418Z,0
2022-09-02T03:52:36.522Z,0
2022-09-02T03:53:53.626Z,0
2022-09-02T03:55:10.731Z,0
2022-09-02T03:56:27.835Z,0
2022-09-02T03:57:44.939Z,0
2022-09-02T03:59:02.044Z,0
2022-09-02T04:00:19.149Z,0
2022-09-02T04:01:36.253Z,0
2022-09-02T04:02:53.357Z,0
2022-09-02T04:04:10.461Z,4
2022-09-02T04:05:27.566Z,4
2022-09-02T04:06:44.670Z,0
2022-09-02T04:08:00.791Z,4
2022-09-02T04:09:17.895Z,4
2022-09-02T04:10:34.999Z,4
2022-09-02T04:11:52.104Z,4
2022-09-02T04:13:09.209Z,8
2022-09-02T04:14:26.313Z,8
2022-09-02T04:15:43.417Z,8
2022-09-02T04:17:00.522Z,8
2022-09-02T04:18:17.626Z,8
2022-09-02T04:19:34.730Z,8
2022-09-02T04:20:51.835Z,12
2022-09-02T04:22:08.939Z,20
2022-09-02T04:23:26.043Z,20
2022-09-02T04:24:42.164Z,24
2022-09-02T04:25:59.268Z,32
2022-09-02T04:27:16.372Z,36
2022-09-02T04:28:33.476Z,44
2022-09-02T04:29:50.580Z,52
2022-09-02T04:31:07.684Z,64
2022-09-02T04:32:24.789Z,76
2022-09-02T04:33:41.893Z,88
2022-09-02T04:34:58.997Z,104
2022-09-02T04:36:16.102Z,116
2022-09-02T04:37:33.206Z,132
2022-09-02T04:38:50.310Z,152
2022-09-02T04:40:07.414Z,176
2022-09-02T04:41:23.535Z,204
2022-09-02T04:42:40.639Z,228
2022-09-02T04:43:57.744Z,252
2022-09-02T04:45:14.849Z,272
2022-09-02T04:46:31.953Z,300
2022-09-02T04:47:49.057Z,332
2022-09-02T04:49:06.162Z,368
2022-09-02T04:50:23.266Z,408
2022-09-02T04:51:40.370Z,444
2022-09-02T04:52:57.474Z,488
2022-09-02T04:54:14.579Z,532
2022-09-02T04:55:31.684Z,580
2022-09-02T04:56:48.788Z,628
2022-09-02T04:58:04.908Z,664
2022-09-02T04:59:22.013Z,700
2022-09-02T05:00:39.117Z,736
2022-09-02T05:01:56.221Z,772
2022-09-02T05:03:13.325Z,816
2022-09-02T05:04:30.430Z,864
2022-09-02T05:05:47.534Z,912
2022-09-02T05:07:04.639Z,964
2022-09-02T05:08:21.743Z,1008
2022-09-02T05:09:38.847Z,1040
2022-09-02T05:10:55.952Z,1076
2022-09-02T05:12:13.056Z,1100
2022-09-02T05:13:30.161Z,1104
2022-09-02T05:14:46.281Z,1100
2022-09-02T05:16:03.385Z,1092
2022-09-02T05:17:20.490Z,1108
2022-09-02T05:18:37.594Z,1144
2022-09-02T05:19:54.699Z,1204
2022-09-02T05:21:11.803Z,1276
2022-09-02T05:22:28.908Z,1340
2022-09-02T05:23:46.012Z,1396
2022-09-02T05:25:03.116Z,1432
2022-09-02T05:26:20.221Z,1480
2022-09-02T05:27:37.325Z,1544
2022-09-02T05:28:54.430Z,1612
2022-09-02T05:30:11.534Z,1696
2022-09-02T05:31:27.655Z,1788
2022-09-02T05:32:44.759Z,1872
2022-09-02T05:34:01.863Z,1992
2022-09-02T05:35:18.968Z,2132
2022-09-02T05:36:36.072Z,2276
2022-09-02T05:37:53.176Z,2428
2022-09-02T05:39:10.280Z,2588
2022-09-02T05:40:27.385Z,2720
2022-09-02T05:41:44.489Z,2816
2022-09-02T05:43:01.594Z,2908
2022-09-02T05:44:18.698Z,2988
2022-09-02T05:45:35.803Z,3048
2022-09-02T05:46:52.907Z,3052
2022-09-02T05:48:09.027Z,3032
2022-09-02T05:49:26.131Z,3024
2022-09-02T05:50:43.235Z,3016
2022-09-02T05:52:00.340Z,3012
2022-09-02T05:53:17.444Z,3028
2022-09-02T05:54:34.548Z,3108
2022-09-02T05:55:51.652Z,3152
2022-09-02T05:57:08.756Z,3272
2022-09-02T05:58:25.860Z,3456
2022-09-02T05:59:42.964Z,3740
2022-09-02T06:01:00.068Z,3900
2022-09-02T06:02:17.173Z,4128
2022-09-02T06:03:34.277Z,4356
2022-09-02T06:04:50.397Z,4600
2022-09-02T06:06:07.501Z,4912
2022-09-02T06:07:24.605Z,5224
2022-09-02T06:08:41.709Z,5424
2022-09-02T06:09:58.813Z,5584
2022-09-02T06:11:15.917Z,5708
2022-09-02T06:12:33.021Z,5832
2022-09-02T06:13:50.125Z,5956
2022-09-02T06:15:07.230Z,6028
2022-09-02T06:16:24.333Z,5996
2022-09-02T06:17:41.437Z,5980
2022-09-02T06:18:58.541Z,5976
2022-09-02T06:20:15.645Z,5884
2022-09-02T06:21:31.766Z,5736
2022-09-02T06:22:48.870Z,5564
2022-09-02T06:24:05.974Z,5408
2022-09-02T06:25:23.078Z,5320
2022-09-02T06:26:40.182Z,5264
2022-09-02T06:27:57.286Z,5296
2022-09-02T06:29:13.407Z,5352
2022-09-02T06:30:30.511Z,5388
2022-09-02T06:31:47.615Z,5448
2022-09-02T06:33:04.719Z,5720
2022-09-02T06:34:21.823Z,5836
2022-09-02T06:35:38.927Z,6024
2022-09-02T06:36:56.032Z,6072
2022-09-02T06:38:13.136Z,6180
2022-09-02T06:39:30.240Z,6428
2022-09-02T06:40:47.345Z,6736
2022-09-02T06:42:04.449Z,6948
2022-09-02T06:43:21.553Z,7420
2022-09-02T06:44:38.658Z,7740
2022-09-02T06:45:54.778Z,8372
2022-09-02T06:47:11.882Z,8948
2022-09-02T06:48:28.987Z,8864
2022-09-02T06:49:46.091Z,10568
2022-09-02T06:51:03.195Z,20864
2022-09-02T06:52:20.298Z,15168
2022-09-02T06:53:37.402Z,9416
2022-09-02T06:54:54.506Z,8928
2022-09-02T06:56:11.609Z,8720
2022-09-02T06:57:28.714Z,8776
2022-09-02T06:58:45.818Z,10392
2022-09-02T07:00:02.922Z,13476
2022-09-02T07:01:20.026Z,12824
2022-09-02T07:02:36.146Z,12320
2022-09-02T07:03:53.250Z,12300
2022-09-02T07:05:10.355Z,12080
2022-09-02T07:06:27.459Z,11244
2022-09-02T07:07:44.563Z,11240
2022-09-02T07:09:01.667Z,11348
2022-09-02T07:10:18.771Z,11144
2022-09-02T07:11:35.875Z,11024
2022-09-02T07:12:52.979Z,10936
2022-09-02T07:14:10.083Z,17472
2022-09-02T07:15:27.187Z,10952
2022-09-02T07:16:44.291Z,11072
2022-09-02T07:18:01.394Z,11212
2022-09-02T07:19:17.514Z,11000
2022-09-02T07:20:34.618Z,10760
2022-09-02T07:21:51.723Z,10596
2022-09-02T07:23:08.827Z,10424
2022-09-02T07:24:25.931Z,10296
2022-09-02T07:25:43.035Z,10180
2022-09-02T07:27:00.139Z,10080
2022-09-02T07:28:17.243Z,10376
2022-09-02T07:29:34.348Z,10052
2022-09-02T07:30:51.452Z,10508
2022-09-02T07:32:08.556Z,10444
2022-09-02T07:33:25.660Z,10012
2022-09-02T07:34:42.765Z,10236
2022-09-02T07:35:58.885Z,10668
2022-09-02T07:37:15.989Z,11928
2022-09-02T07:38:33.093Z,13840
2022-09-02T07:39:50.198Z,16256
2022-09-02T07:41:07.302Z,17856
2022-09-02T07:42:24.406Z,13140
2022-09-02T07:43:41.510Z,14272
2022-09-02T07:44:58.614Z,13352
2022-09-02T07:46:15.719Z,13504
2022-09-02T07:47:32.823Z,15596
2022-09-02T07:48:49.927Z,23712
2022-09-02T07:50:07.031Z,24992
2022-09-02T07:51:24.135Z,16224
2022-09-02T07:52:40.255Z,13532
2022-09-02T07:53:57.359Z,13012
2022-09-02T07:55:14.463Z,12844
2022-09-02T07:56:31.568Z,12944
2022-09-02T07:57:48.672Z,12692
2022-09-02T07:59:05.776Z,12440
2022-09-02T08:00:22.880Z,12280
2022-09-02T08:01:39.984Z,12168
2022-09-02T08:02:57.088Z,12084
2022-09-02T08:04:14.192Z,11912
2022-09-02T08:05:31.296Z,11812
2022-09-02T08:06:48.400Z,11716
2022-09-02T08:08:05.504Z,11788
2022-09-02T08:09:21.624Z,11764
2022-09-02T08:10:38.727Z,11524
2022-09-02T08:11:55.832Z,11376
2022-09-02T08:13:12.936Z,11372
2022-09-02T08:14:30.040Z,11336
2022-09-02T08:15:47.144Z,11468
2022-09-02T08:17:04.248Z,11844
2022-09-02T08:18:21.352Z,12296
2022-09-02T08:19:38.456Z,15220
2022-09-02T08:20:55.560Z,13148
2022-09-02T08:22:12.664Z,14672
2022-09-02T08:23:29.767Z,13952
2022-09-02T08:24:46.871Z,18048
2022-09-02T08:26:02.992Z,14304
2022-09-02T08:27:20.097Z,14136
2022-09-02T08:28:37.201Z,13740
2022-09-02T08:29:54.305Z,13512
2022-09-02T08:31:11.409Z,13444
2022-09-02T08:32:28.513Z,15116
2022-09-02T08:33:45.618Z,14300
2022-09-02T08:35:02.722Z,12752
2022-09-02T08:36:19.827Z,12520
2022-09-02T08:37:36.931Z,12380
2022-09-02T08:38:54.035Z,12236
2022-09-02T08:40:11.139Z,11880
2022-09-02T08:41:28.243Z,11924
2022-09-02T08:42:44.364Z,11236
2022-09-02T08:44:01.468Z,11072
2022-09-02T08:45:18.572Z,11188
2022-09-02T08:46:35.675Z,11528
2022-09-02T08:47:52.779Z,12016
2022-09-02T08:49:09.883Z,13828
2022-09-02T08:50:26.988Z,13644
2022-09-02T08:51:44.092Z,13884
2022-09-02T08:53:01.196Z,14700
2022-09-02T08:54:18.300Z,17024
2022-09-02T08:55:35.404Z,16192
2022-09-02T08:56:52.508Z,16704
2022-09-02T08:58:09.612Z,17888
2022-09-02T08:59:25.732Z,18656
2022-09-02T09:00:42.837Z,20064
2022-09-02T09:01:59.941Z,17312
2022-09-02T09:03:17.045Z,17632
2022-09-02T09:04:34.149Z,19744
2022-09-02T09:05:51.253Z,22048
2022-09-02T09:07:08.357Z,16864
2022-09-02T09:08:25.461Z,16160
2022-09-02T09:09:42.565Z,15920
2022-09-02T09:10:59.669Z,15896
2022-09-02T09:12:16.774Z,16192
2022-09-02T09:13:33.878Z,16608
2022-09-02T09:14:50.982Z,17408
2022-09-02T09:16:07.102Z,16864
2022-09-02T09:17:24.206Z,20352
2022-09-02T09:18:41.310Z,16768
2022-09-02T09:19:58.414Z,15952
2022-09-02T09:21:15.518Z,22272
2022-09-02T09:22:32.622Z,22720
2022-09-02T09:23:49.724Z,21056
2022-09-02T09:25:06.828Z,20320
2022-09-02T09:26:23.933Z,16076
2022-09-02T09:27:41.037Z,13904
2022-09-02T09:28:58.141Z,13208
2022-09-02T09:30:15.246Z,17152
2022-09-02T09:31:32.352Z,12684
2022-09-02T09:32:48.472Z,13048
2022-09-02T09:34:05.577Z,15196
2022-09-02T09:35:22.681Z,13536
2022-09-02T09:36:39.786Z,14984
2022-09-02T09:37:56.890Z,14632
2022-09-02T09:39:13.995Z,14820
2022-09-02T09:40:31.099Z,15428
2022-09-02T09:41:48.204Z,15748
2022-09-02T09:43:05.308Z,15312
2022-09-02T09:44:22.412Z,15192
2022-09-02T09:45:39.517Z,15320
2022-09-02T09:46:56.621Z,16320
2022-09-02T09:48:13.725Z,15864
2022-09-02T09:49:29.845Z,16192
2022-09-02T09:50:46.949Z,21280
2022-09-02T09:52:04.054Z,21696
2022-09-02T09:53:21.158Z,17536
2022-09-02T09:54:38.262Z,24800
2022-09-02T09:55:55.366Z,18624
2022-09-02T09:57:12.470Z,21120
2022-09-02T09:58:29.575Z,22560
2022-09-02T09:59:46.679Z,19616
2022-09-02T10:01:03.783Z,18432
2022-09-02T10:02:20.887Z,22240
2022-09-02T10:03:37.993Z,20832
2022-09-02T10:04:55.098Z,22784
2022-09-02T10:06:11.218Z,24352
2022-09-02T10:07:28.323Z,24768
2022-09-02T10:08:45.427Z,24448
2022-09-02T10:10:02.531Z,25568
2022-09-02T10:11:19.635Z,25696
2022-09-02T10:12:36.739Z,24640
2022-09-02T10:13:53.843Z,24416
2022-09-02T10:15:10.947Z,26016
2022-09-02T10:16:28.051Z,24288
2022-09-02T10:17:45.155Z,18784
2022-09-02T10:19:02.259Z,16672
2022-09-02T10:20:19.363Z,15420
2022-09-02T10:21:36.467Z,16128
2022-09-02T10:22:52.587Z,17600
2022-09-02T10:24:09.691Z,19552
2022-09-02T10:25:26.795Z,22400
2022-09-02T10:26:43.899Z,20960
2022-09-02T10:28:01.004Z,12972
2022-09-02T10:29:18.108Z,11200
2022-09-02T10:30:35.212Z,18624
2022-09-02T10:31:52.316Z,21664
2022-09-02T10:33:09.420Z,15208
2022-09-02T10:34:26.524Z,11660
2022-09-02T10:35:43.628Z,9004
2022-09-02T10:37:00.732Z,8552
2022-09-02T10:38:17.836Z,8432
2022-09-02T10:39:33.956Z,8840
2022-09-02T10:40:51.060Z,9296
2022-09-02T10:42:08.164Z,9720
2022-09-02T10:43:25.268Z,9908
2022-09-02T10:44:42.372Z,9600
2022-09-02T10:45:59.477Z,9492
2022-09-02T10:47:15.597Z,9600
2022-09-02T10:48:32.700Z,9816
2022-09-02T10:49:49.804Z,9932
2022-09-02T10:51:06.908Z,10060
2022-09-02T10:52:24.012Z,10172
2022-09-02T10:53:41.117Z,10300
2022-09-02T10:54:58.221Z,10492
2022-09-02T10:56:15.325Z,10804
2022-09-02T10:57:32.429Z,11044
2022-09-02T10:58:49.533Z,11080
2022-09-02T11:00:06.637Z,11196
2022-09-02T11:01:23.741Z,11580
2022-09-02T11:02:40.845Z,12080
2022-09-02T11:03:56.965Z,12352
2022-09-02T11:05:14.069Z,12420
2022-09-02T11:06:31.173Z,13324
2022-09-02T11:07:48.277Z,13460
2022-09-02T11:09:05.381Z,11580
2022-09-02T11:10:22.485Z,11128
2022-09-02T11:11:39.589Z,11124
2022-09-02T11:12:56.693Z,10848
2022-09-02T11:14:13.797Z,11368
2022-09-02T11:15:30.901Z,12688
2022-09-02T11:16:48.005Z,12236
2022-09-02T11:18:05.109Z,12244
2022-09-02T11:19:22.213Z,11920
2022-09-02T11:20:38.333Z,11356
2022-09-02T11:21:55.437Z,12360
2022-09-02T11:23:12.541Z,12712
2022-09-02T11:24:29.645Z,12692
2022-09-02T11:25:46.750Z,12564
2022-09-02T11:27:03.854Z,12116
2022-09-02T11:28:20.958Z,12228
2022-09-02T11:29:38.062Z,10788
2022-09-02T11:30:55.166Z,10540
2022-09-02T11:32:12.270Z,10660
2022-09-02T11:33:29.374Z,10460
2022-09-02T11:34:46.478Z,10408
2022-09-02T11:36:03.582Z,11076
2022-09-02T11:37:19.703Z,11628
2022-09-02T11:38:36.807Z,11436
2022-09-02T11:39:53.911Z,11192
2022-09-02T11:41:11.015Z,11032
2022-09-02T11:42:28.119Z,10992
2022-09-02T11:43:45.223Z,11008
2022-09-02T11:45:02.327Z,11152
2022-09-02T11:46:19.432Z,10092
2022-09-02T11:47:36.536Z,11392
2022-09-02T11:48:53.640Z,10328
2022-09-02T11:50:10.744Z,10292
2022-09-02T11:51:27.848Z,10124
2022-09-02T11:52:44.952Z,9848
2022-09-02T11:54:01.073Z,9520
2022-09-02T11:55:18.178Z,9304
2022-09-02T11:56:35.282Z,9176
2022-09-02T11:57:52.386Z,9144
2022-09-02T11:59:09.490Z,9200
2022-09-02T12:00:26.595Z,9264
2022-09-02T12:01:43.699Z,9472
2022-09-02T12:03:00.803Z,9772
2022-09-02T12:04:17.907Z,10052
2022-09-02T12:05:35.011Z,10292
2022-09-02T12:06:52.115Z,10424
2022-09-02T12:08:09.219Z,9936
2022-09-02T12:09:26.323Z,9300
2022-09-02T12:10:42.444Z,8864
2022-09-02T12:11:59.548Z,8368
2022-09-02T12:13:16.653Z,8140
2022-09-02T12:14:33.757Z,7944
2022-09-02T12:15:50.861Z,7872
2022-09-02T12:17:07.965Z,7852
2022-09-02T12:18:25.069Z,7732
2022-09-02T12:19:42.173Z,7716
2022-09-02T12:20:59.277Z,7836
2022-09-02T12:22:16.381Z,8016
2022-09-02T12:23:33.485Z,8028
2022-09-02T12:24:50.589Z,8036
2022-09-02T12:26:07.693Z,8128
2022-09-02T12:27:23.813Z,8352
2022-09-02T12:28:40.917Z,8720
2022-09-02T12:29:58.021Z,9092
2022-09-02T12:31:15.125Z,10352
2022-09-02T12:32:32.229Z,10648
2022-09-02T12:33:49.333Z,10820
2022-09-02T12:35:06.437Z,9896
2022-09-02T12:36:23.540Z,10328
2022-09-02T12:37:40.645Z,10932
2022-09-02T12:38:57.749Z,10484
2022-09-02T12:40:14.853Z,11172
2022-09-02T12:41:31.957Z,11256
2022-09-02T12:42:49.061Z,11000
2022-09-02T12:44:05.181Z,11088
2022-09-02T12:45:22.285Z,10892
2022-09-02T12:46:39.389Z,10628
2022-09-02T12:47:56.491Z,9400
2022-09-02T12:49:13.595Z,10312
2022-09-02T12:50:30.699Z,10136
2022-09-02T12:51:47.803Z,10252
2022-09-02T12:53:04.907Z,9768
2022-09-02T12:54:22.011Z,10344
2022-09-02T12:55:39.116Z,10480
2022-09-02T12:56:56.220Z,10720
2022-09-02T12:58:13.324Z,10572
2022-09-02T12:59:30.428Z,10940
2022-09-02T13:00:46.548Z,10816
2022-09-02T13:02:03.652Z,10300
2022-09-02T13:03:20.756Z,10356
2022-09-02T13:04:37.860Z,10436
2022-09-02T13:05:54.964Z,10536
2022-09-02T13:07:12.069Z,10496
2022-09-02T13:08:29.173Z,10608
2022-09-02T13:09:46.277Z,10388
2022-09-02T13:11:03.381Z,10056
2022-09-02T13:12:20.485Z,8928
2022-09-02T13:13:37.589Z,8784
2022-09-02T13:14:54.693Z,8700
2022-09-02T13:16:11.798Z,8428
2022-09-02T13:17:27.918Z,8276
2022-09-02T13:18:45.022Z,8444
2022-09-02T13:20:02.127Z,8076
2022-09-02T13:21:19.231Z,8320
2022-09-02T13:22:36.335Z,8608
2022-09-02T13:23:53.439Z,8600
2022-09-02T13:25:10.543Z,8700
2022-09-02T13:26:27.648Z,8736
2022-09-02T13:27:44.752Z,8708
2022-09-02T13:29:01.856Z,8836
2022-09-02T13:30:18.960Z,7900
2022-09-02T13:31:36.065Z,7832
2022-09-02T13:32:53.169Z,7744
2022-09-02T13:34:09.289Z,7496
2022-09-02T13:35:26.393Z,7240
2022-09-02T13:36:43.497Z,7080
2022-09-02T13:38:00.601Z,7088
2022-09-02T13:39:17.705Z,7516
2022-09-02T13:40:34.810Z,7816
2022-09-02T13:41:51.914Z,8340
2022-09-02T13:43:09.018Z,7968
2022-09-02T13:44:26.122Z,8224
2022-09-02T13:45:43.226Z,8144
2022-09-02T13:47:00.330Z,9092
2022-09-02T13:48:17.433Z,7412
2022-09-02T13:49:34.537Z,7008
2022-09-02T13:50:50.658Z,6688
2022-09-02T13:52:07.762Z,6844
2022-09-02T13:53:24.866Z,6552
2022-09-02T13:54:41.970Z,6552
2022-09-02T13:55:59.074Z,6712
2022-09-02T13:57:16.178Z,8264
2022-09-02T13:58:33.282Z,7248
2022-09-02T13:59:50.386Z,8176
2022-09-02T14:01:07.490Z,7988
2022-09-02T14:02:24.594Z,7764
2022-09-02T14:03:41.698Z,7588
2022-09-02T14:04:58.802Z,7168
2022-09-02T14:06:15.906Z,8036
2022-09-02T14:07:32.026Z,8344
2022-09-02T14:08:49.130Z,8556
2022-09-02T14:10:06.234Z,8664
2022-09-02T14:11:23.338Z,8640
2022-09-02T14:12:40.442Z,8252
2022-09-02T14:13:57.546Z,7912
2022-09-02T14:15:14.650Z,7528
2022-09-02T14:16:31.754Z,7200
2022-09-02T14:17:48.858Z,6716
2022-09-02T14:19:05.962Z,6404
2022-09-02T14:20:23.066Z,6220
2022-09-02T14:21:40.170Z,6048
2022-09-02T14:22:57.274Z,5956
2022-09-02T14:24:13.395Z,5124
2022-09-02T14:25:30.499Z,5024
2022-09-02T14:26:47.603Z,5772
2022-09-02T14:28:04.707Z,5832
2022-09-02T14:29:21.810Z,5904
2022-09-02T14:30:38.914Z,5984
2022-09-02T14:31:56.018Z,6060
2022-09-02T14:33:13.123Z,6128
2022-09-02T14:34:30.227Z,6140
2022-09-02T14:35:47.331Z,6236
2022-09-02T14:37:04.435Z,6416
2022-09-02T14:38:21.539Z,6664
2022-09-02T14:39:38.643Z,6692
2022-09-02T14:40:54.763Z,6672
2022-09-02T14:42:11.866Z,6596
2022-09-02T14:43:28.970Z,6516
2022-09-02T14:44:46.074Z,6420
2022-09-02T14:46:03.178Z,6408
2022-09-02T14:47:20.282Z,6336
2022-09-02T14:48:37.386Z,6360
2022-09-02T14:49:54.490Z,6248
2022-09-02T14:51:11.594Z,6212
2022-09-02T14:52:28.697Z,6096
2022-09-02T14:53:45.801Z,5924
2022-09-02T14:55:02.905Z,5892
2022-09-02T14:56:20.009Z,5900
2022-09-02T14:57:36.129Z,5804
2022-09-02T14:58:53.233Z,5388
2022-09-02T15:00:10.337Z,5656
2022-09-02T15:01:27.441Z,5580
2022-09-02T15:02:44.544Z,5748
2022-09-02T15:04:01.648Z,5672
2022-09-02T15:05:17.768Z,5544
2022-09-02T15:06:34.872Z,5460
2022-09-02T15:07:51.976Z,5448
2022-09-02T15:09:09.080Z,5432
2022-09-02T15:10:26.184Z,4908
2022-09-02T15:11:43.287Z,4920
2022-09-02T15:13:00.391Z,4476
2022-09-02T15:14:17.495Z,4700
2022-09-02T15:15:34.599Z,4676
2022-09-02T15:16:51.703Z,5308
2022-09-02T15:18:08.807Z,5404
2022-09-02T15:19:25.911Z,4780
2022-09-02T15:20:43.015Z,4496
2022-09-02T15:21:59.135Z,4608
2022-09-02T15:23:16.239Z,5604
2022-09-02T15:24:33.343Z,5688
2022-09-02T15:25:50.447Z,5752
2022-09-02T15:27:07.551Z,5836
2022-09-02T15:28:24.655Z,5904
2022-09-02T15:29:41.759Z,5912
2022-09-02T15:30:58.863Z,5884
2022-09-02T15:32:15.967Z,5920
2022-09-02T15:33:33.071Z,5980
2022-09-02T15:34:50.175Z,5944
2022-09-02T15:36:07.279Z,5852
2022-09-02T15:37:24.382Z,5652
2022-09-02T15:38:40.502Z,5416
2022-09-02T15:39:57.606Z,5228
2022-09-02T15:41:14.710Z,5048
2022-09-02T15:42:31.814Z,4904
2022-09-02T15:43:48.918Z,4812
2022-09-02T15:45:06.022Z,4832
2022-09-02T15:46:23.126Z,4828
2022-09-02T15:47:40.229Z,4824
2022-09-02T15:48:57.333Z,4768
2022-09-02T15:50:14.437Z,4760
2022-09-02T15:51:31.539Z,4756
2022-09-02T15:52:48.643Z,4728
2022-09-02T15:54:05.747Z,4728
2022-09-02T15:55:21.867Z,4740
2022-09-02T15:56:38.971Z,4720
2022-09-02T15:57:56.075Z,4728
2022-09-02T15:59:13.179Z,4716
2022-09-02T16:00:30.284Z,4680
2022-09-02T16:01:47.388Z,4660
2022-09-02T16:03:04.491Z,4676
2022-09-02T16:04:21.595Z,4640
2022-09-02T16:05:38.699Z,4652
2022-09-02T16:06:55.803Z,4652
2022-09-02T16:08:12.907Z,4644
2022-09-02T16:09:30.011Z,4612
2022-09-02T16:10:47.115Z,4428
2022-09-02T16:12:03.235Z,4540
2022-09-02T16:13:20.339Z,4560
2022-09-02T16:14:37.443Z,4572
2022-09-02T16:15:54.547Z,4568
2022-09-02T16:17:11.652Z,4564
2022-09-02T16:18:28.755Z,4580
2022-09-02T16:19:45.859Z,4600
2022-09-02T16:21:02.964Z,4624
2022-09-02T16:22:20.068Z,4608
2022-09-02T16:23:37.172Z,4508
2022-09-02T16:24:54.276Z,4388
2022-09-02T16:26:11.380Z,4180
2022-09-02T16:27:28.485Z,4084
2022-09-02T16:28:44.604Z,3976
2022-09-02T16:30:01.708Z,3880
2022-09-02T16:31:18.812Z,3820
2022-09-02T16:32:35.916Z,3760
2022-09-02T16:33:53.021Z,3720
2022-09-02T16:35:10.126Z,3704
2022-09-02T16:36:27.230Z,3684
2022-09-02T16:37:44.334Z,3684
2022-09-02T16:39:01.438Z,3680
2022-09-02T16:40:18.542Z,3668
2022-09-02T16:41:35.646Z,3660
2022-09-02T16:42:52.750Z,3652
2022-09-02T16:44:09.854Z,3620
2022-09-02T16:45:25.974Z,3580
2022-09-02T16:46:43.078Z,3452
2022-09-02T16:48:00.182Z,3392
2022-09-02T16:49:17.287Z,3296
2022-09-02T16:50:34.392Z,3240
2022-09-02T16:51:51.496Z,3320
2022-09-02T16:53:08.600Z,3444
2022-09-02T16:54:25.704Z,3436
2022-09-02T16:55:42.807Z,3428
2022-09-02T16:56:59.911Z,3412
2022-09-02T16:58:17.015Z,3396
2022-09-02T16:59:34.119Z,3344
2022-09-02T17:00:51.224Z,3300
2022-09-02T17:02:07.344Z,3276
2022-09-02T17:03:24.448Z,3236
2022-09-02T17:04:41.552Z,3204
2022-09-02T17:05:58.656Z,3156
2022-09-02T17:07:15.760Z,3104
2022-09-02T17:08:32.864Z,3056
2022-09-02T17:09:49.969Z,3028
2022-09-02T17:11:07.073Z,2996
2022-09-02T17:12:24.177Z,2948
2022-09-02T17:13:41.281Z,2888
2022-09-02T17:14:58.385Z,2808
2022-09-02T17:16:15.489Z,2748
2022-09-02T17:17:32.593Z,2684
2022-09-02T17:18:48.714Z,2592
2022-09-02T17:20:05.818Z,2508
2022-09-02T17:21:22.922Z,2420